Time;durP1;ratioP1;P1;durP2;ratioP2;P2;SDS_P1;SDS_P2;PMS_P1;PMS_P2;Temp;Humidity;BMP_temperature;BMP_pressure;BME280_temperature;BME280_humidity;BME280_pressure;Samples;Min_cycle;Max_cycle;Signal;HPM_P1;HPM_P2
2020/12/08 00:02:07;;;;;;;8.50;7.73;;;7.50;99.90;;;;;;4998556;28;20581;-69
2020/12/08 00:04:52;;;;;;;7.80;7.10;;;7.40;99.90;;;;;;5012215;28;20563;-70
2020/12/08 00:07:36;;;;;;;7.97;7.17;;;7.40;99.90;;;;;;5015768;28;20859;-70
2020/12/08 00:10:21;;;;;;;8.40;7.70;;;7.40;99.90;;;;;;4997020;28;20862;-69
2020/12/08 00:13:05;;;;;;;7.53;6.77;;;7.40;99.90;;;;;;5020392;28;20591;-70
2020/12/08 00:15:49;;;;;;;8.23;7.50;;;7.40;99.90;;;;;;5006417;28;20939;-69
2020/12/08 00:18:34;;;;;;;7.80;7.20;;;7.40;99.90;;;;;;5001560;28;20785;-69
2020/12/08 00:21:19;;;;;;;8.03;7.33;;;7.40;99.90;;;;;;5006938;28;20647;-69
2020/12/08 00:24:03;;;;;;;7.37;6.77;;;7.40;99.90;;;;;;5005321;28;20687;-69
2020/12/08 00:26:48;;;;;;;8.27;7.47;;;7.40;99.90;;;;;;5015330;28;20706;-69
2020/12/08 00:29:32;;;;;;;7.63;6.93;;;7.50;99.90;;;;;;4993696;28;20600;-69
2020/12/08 00:32:17;;;;;;;8.00;7.30;;;7.30;99.90;;;;;;5016401;28;20798;-73
2020/12/08 00:35:05;;;;;;;7.47;6.80;;;7.30;99.90;;;;;;5008220;28;20587;-69
2020/12/08 00:37:50;;;;;;;8.47;7.70;;;7.30;99.90;;;;;;4994485;28;20654;-69
2020/12/08 00:40:35;;;;;;;8.20;7.50;;;7.30;99.90;;;;;;5003124;28;20955;-69
2020/12/08 00:43:23;;;;;;;7.57;6.87;;;7.30;99.90;;;;;;4993024;28;20569;-70
2020/12/08 00:46:12;;;;;;;7.90;7.20;;;7.40;99.90;;;;;;5006990;28;20687;-69
2020/12/08 00:48:56;;;;;;;8.17;7.40;;;7.30;99.90;;;;;;5008230;28;21111;-69
2020/12/08 00:51:41;;;;;;;7.90;7.30;;;7.30;99.90;;;;;;5007671;28;21018;-70
2020/12/08 00:54:25;;;;;;;8.20;7.40;;;7.30;99.90;;;;;;4992848;28;20798;-70
2020/12/08 00:57:10;;;;;;;8.60;7.80;;;7.30;99.90;;;;;;5008652;28;20639;-69
2020/12/08 00:59:55;;;;;;;8.43;7.63;;;7.30;99.90;;;;;;5008424;28;20655;-69
2020/12/08 01:02:39;;;;;;;8.33;7.63;;;7.30;99.90;;;;;;5002977;28;20668;-70
2020/12/08 01:05:24;;;;;;;8.43;7.67;;;7.30;99.90;;;;;;5008414;28;20640;-70
2020/12/08 01:08:08;;;;;;;8.30;7.57;;;7.30;99.90;;;;;;5011296;28;20596;-70
2020/12/08 01:10:53;;;;;;;8.90;7.90;;;7.40;99.90;;;;;;5004957;28;20743;-70
2020/12/08 01:13:38;;;;;;;7.23;6.63;;;7.30;99.90;;;;;;5027091;28;20587;-69
2020/12/08 01:16:25;;;;;;;8.10;7.40;;;7.30;99.90;;;;;;5008585;28;20650;-70
2020/12/08 01:19:10;;;;;;;8.83;8.03;;;7.50;99.90;;;;;;5007066;28;20587;-71
2020/12/08 01:21:55;;;;;;;8.87;8.07;;;7.40;99.90;;;;;;5001811;28;20643;-70
2020/12/08 01:24:40;;;;;;;7.83;7.13;;;7.30;99.90;;;;;;5006273;28;21212;-70
2020/12/08 01:27:24;;;;;;;8.93;8.13;;;7.40;99.90;;;;;;5014065;28;20654;-70
2020/12/08 01:30:09;;;;;;;8.07;7.37;;;7.40;99.90;;;;;;5006330;28;20726;-70
2020/12/08 01:32:53;;;;;;;7.90;7.20;;;7.30;99.90;;;;;;5005563;28;20619;-69
2020/12/08 01:35:37;;;;;;;8.97;8.07;;;7.30;99.90;;;;;;5000265;28;20695;-70
2020/12/08 01:38:22;;;;;;;8.33;7.63;;;7.30;99.90;;;;;;5006950;28;20619;-70
2020/12/08 01:41:06;;;;;;;8.50;7.70;;;7.30;99.90;;;;;;5001834;28;20631;-70
2020/12/08 01:43:55;;;;;;;8.00;7.20;;;7.30;99.90;;;;;;5008253;28;20588;-71
2020/12/08 01:46:40;;;;;;;8.00;7.30;;;7.30;99.90;;;;;;5001338;28;20794;-70
2020/12/08 01:49:25;;;;;;;9.07;8.17;;;7.30;99.90;;;;;;5003885;28;20568;-70
2020/12/08 01:52:14;;;;;;;8.43;7.63;;;7.30;99.90;;;;;;5007134;28;20767;-71
2020/12/08 01:55:04;;;;;;;7.77;7.07;;;7.30;99.90;;;;;;5002343;28;20600;-70
2020/12/08 01:57:49;;;;;;;8.23;7.53;;;7.30;99.90;;;;;;5007295;28;20686;-70
2020/12/08 02:00:33;;;;;;;8.40;7.60;;;7.30;99.90;;;;;;4999578;28;20660;-70
2020/12/08 02:03:19;;;;;;;8.33;7.60;;;7.40;99.90;;;;;;5013235;28;20598;-70
2020/12/08 02:06:03;;;;;;;7.50;6.90;;;7.30;99.90;;;;;;4998190;28;20916;-75
2020/12/08 02:08:48;;;;;;;8.63;7.80;;;7.30;99.90;;;;;;4994168;28;20704;-71
2020/12/08 02:11:32;;;;;;;8.30;7.60;;;7.30;99.90;;;;;;5007619;28;20695;-69
2020/12/08 02:14:17;;;;;;;8.07;7.33;;;7.30;99.90;;;;;;5003187;28;20671;-69
2020/12/08 02:17:01;;;;;;;9.17;8.27;;;7.30;99.90;;;;;;5006024;28;20761;-69
2020/12/08 02:19:46;;;;;;;8.47;7.67;;;7.40;99.90;;;;;;5010119;28;20792;-69
2020/12/08 02:22:31;;;;;;;8.00;7.30;;;7.30;99.90;;;;;;5009446;28;20675;-69
2020/12/08 02:25:15;;;;;;;9.37;8.53;;;7.30;99.90;;;;;;4996537;28;20593;-69
2020/12/08 02:28:00;;;;;;;8.63;7.83;;;7.30;99.90;;;;;;5049098;22;20849;-65
2020/12/08 02:30:44;;;;;;;8.43;7.63;;;7.30;99.90;;;;;;4988516;28;20641;-66
2020/12/08 02:33:30;;;;;;;8.00;7.30;;;7.30;99.90;;;;;;4962457;28;20675;-65
2020/12/08 02:36:15;;;;;;;8.80;8.00;;;7.30;99.90;;;;;;4968923;28;20618;-66
2020/12/08 02:38:59;;;;;;;8.60;7.77;;;7.30;99.90;;;;;;4968947;28;20608;-65
2020/12/08 02:41:46;;;;;;;7.93;7.23;;;7.30;99.90;;;;;;4940752;28;21242;-66
2020/12/08 02:44:31;;;;;;;8.80;8.00;;;7.30;99.90;;;;;;4958154;28;20742;-66
2020/12/08 02:47:15;;;;;;;8.67;7.77;;;7.30;99.90;;;;;;4955055;28;20680;-65
2020/12/08 02:50:00;;;;;;;7.80;7.10;;;7.30;99.90;;;;;;4960088;28;20638;-66
2020/12/08 02:52:44;;;;;;;8.47;7.77;;;7.30;99.90;;;;;;4950671;28;20721;-65
2020/12/08 02:55:33;;;;;;;8.27;7.47;;;7.30;99.90;;;;;;4959359;28;20693;-65
2020/12/08 02:58:17;;;;;;;8.23;7.53;;;7.30;99.90;;;;;;4949127;28;21300;-64
2020/12/08 03:01:05;;;;;;;8.73;7.93;;;7.30;99.90;;;;;;4956233;28;20791;-65
2020/12/08 03:03:50;;;;;;;8.87;8.07;;;7.20;99.90;;;;;;4963702;28;20825;-66
2020/12/08 03:06:37;;;;;;;8.67;7.97;;;7.20;99.90;;;;;;4965995;28;21049;-65
2020/12/08 03:09:21;;;;;;;8.43;7.63;;;7.20;99.90;;;;;;4960898;28;20667;-65
2020/12/08 03:12:09;;;;;;;8.77;7.97;;;7.20;99.90;;;;;;4954072;28;20649;-65
2020/12/08 03:14:53;;;;;;;8.87;7.97;;;7.20;99.90;;;;;;4948053;28;21162;-64
2020/12/08 03:17:41;;;;;;;8.40;7.60;;;7.20;99.90;;;;;;4956273;28;20669;-65
2020/12/08 03:20:26;;;;;;;8.80;8.00;;;7.20;99.90;;;;;;4940301;28;20840;-64
2020/12/08 03:23:14;;;;;;;10.10;8.30;;;7.20;99.90;;;;;;4957243;28;20995;-65
2020/12/08 03:25:58;;;;;;;8.00;7.30;;;7.20;99.90;;;;;;4950266;28;20712;-65
2020/12/08 03:28:44;;;;;;;8.87;8.07;;;7.20;99.90;;;;;;4963259;28;20618;-65
2020/12/08 03:31:29;;;;;;;9.10;8.30;;;7.20;99.90;;;;;;4965332;28;20731;-65
2020/12/08 03:34:15;;;;;;;8.70;7.90;;;7.20;99.90;;;;;;4954676;28;20771;-65
2020/12/08 03:37:00;;;;;;;8.20;7.50;;;7.20;99.90;;;;;;4966680;28;20644;-65
2020/12/08 03:39:44;;;;;;;9.20;8.40;;;7.20;99.90;;;;;;4962302;28;20638;-65
2020/12/08 03:42:29;;;;;;;9.33;8.43;;;7.20;99.90;;;;;;4950712;28;20695;-65
2020/12/08 03:45:13;;;;;;;9.33;8.50;;;7.20;99.90;;;;;;4955098;28;20872;-64
2020/12/08 03:47:58;;;;;;;8.33;7.60;;;7.20;99.90;;;;;;4956321;28;20735;-65
2020/12/08 03:50:43;;;;;;;9.20;8.40;;;7.20;99.90;;;;;;4963377;28;21191;-65
2020/12/08 03:53:30;;;;;;;8.50;7.73;;;7.20;99.90;;;;;;4953223;28;20780;-65
2020/12/08 03:56:19;;;;;;;9.00;8.17;;;7.20;99.90;;;;;;4961652;28;20740;-65
2020/12/08 03:59:06;;;;;;;8.53;7.73;;;7.20;99.90;;;;;;4951931;28;20590;-64
2020/12/08 04:01:55;;;;;;;8.27;7.57;;;7.20;99.90;;;;;;4966996;28;20641;-65
2020/12/08 04:04:40;;;;;;;8.70;7.80;;;7.20;99.90;;;;;;4942610;28;20640;-65
2020/12/08 04:07:24;;;;;;;9.40;8.50;;;7.20;99.90;;;;;;4957764;28;20681;-65
2020/12/08 04:10:09;;;;;;;9.40;8.40;;;7.20;99.90;;;;;;4954385;28;20748;-65
2020/12/08 04:12:53;;;;;;;9.20;8.30;;;7.20;99.90;;;;;;4959850;28;20625;-65
2020/12/08 04:15:40;;;;;;;8.53;7.73;;;7.20;99.90;;;;;;4957354;28;20687;-65
2020/12/08 04:18:24;;;;;;;8.70;7.90;;;7.20;99.90;;;;;;4960470;28;20674;-65
2020/12/08 04:21:09;;;;;;;8.67;7.97;;;7.20;99.90;;;;;;4951687;28;20657;-65
2020/12/08 04:24:00;;;;;;;8.97;8.17;;;7.20;99.90;;;;;;4968508;28;20640;-65
2020/12/08 04:26:45;;;;;;;8.00;7.30;;;7.20;99.90;;;;;;4970027;28;20689;-65
2020/12/08 04:29:30;;;;;;;8.87;7.97;;;7.20;99.90;;;;;;4963796;28;20640;-64
2020/12/08 04:32:15;;;;;;;10.53;9.70;;;7.20;99.90;;;;;;4961314;28;20653;-65
2020/12/08 04:34:59;;;;;;;8.87;8.07;;;7.10;99.90;;;;;;4957637;28;20613;-65
2020/12/08 04:37:44;;;;;;;9.53;8.63;;;7.20;99.90;;;;;;4960250;28;20650;-65
2020/12/08 04:40:31;;;;;;;9.70;8.80;;;7.10;99.90;;;;;;4953403;28;20760;-64
2020/12/08 04:43:16;;;;;;;9.90;8.90;;;7.10;99.90;;;;;;4936198;28;20626;-65
2020/12/08 04:46:01;;;;;;;9.77;8.77;;;7.10;99.90;;;;;;4949586;28;20610;-65
2020/12/08 04:48:50;;;;;;;9.40;8.50;;;7.10;99.90;;;;;;4957341;28;21230;-66
2020/12/08 04:51:39;;;;;;;9.30;8.40;;;7.10;99.90;;;;;;4958180;28;20673;-69
2020/12/08 04:54:23;;;;;;;14.60;10.10;;;7.10;99.90;;;;;;4954317;28;20627;-65
2020/12/08 04:57:07;;;;;;;10.07;9.10;;;7.10;99.90;;;;;;4956521;28;21195;-65
2020/12/08 05:00:08;;;;;;;9.80;8.80;;;7.10;99.90;;;;;;4959757;28;20645;-65
2020/12/08 05:02:54;;;;;;;10.63;9.63;;;7.10;99.90;;;;;;4960105;28;20630;-65
2020/12/08 05:05:42;;;;;;;9.93;8.93;;;7.10;99.90;;;;;;4955747;28;21252;-64
2020/12/08 05:08:27;;;;;;;10.40;9.40;;;7.10;99.90;;;;;;4961896;28;20611;-65
2020/12/08 05:11:12;;;;;;;10.23;9.20;;;7.10;99.90;;;;;;4963459;28;20772;-65
2020/12/08 05:14:09;;;;;;;11.17;10.00;;;7.10;99.90;;;;;;4960310;28;20645;-68
2020/12/08 05:17:04;;;;;;;10.90;9.83;;;7.10;99.90;;;;;;4963407;28;20707;-64
2020/12/08 05:20:09;;;;;;;10.53;9.53;;;7.10;99.90;;;;;;4959746;28;20653;-65
2020/12/08 05:22:55;;;;;;;11.00;9.87;;;7.10;99.90;;;;;;4964839;28;20637;-64
2020/12/08 05:25:40;;;;;;;11.50;9.97;;;7.10;99.90;;;;;;4965188;28;20741;-64
2020/12/08 05:28:24;;;;;;;12.17;10.50;;;7.10;99.90;;;;;;4976531;28;20679;-65
2020/12/08 05:31:10;;;;;;;11.00;9.90;;;7.10;99.90;;;;;;4966645;28;20669;-65
2020/12/08 05:33:59;;;;;;;10.67;9.57;;;7.10;99.90;;;;;;4965735;28;20994;-65
2020/12/08 05:36:48;;;;;;;11.57;10.47;;;7.00;99.90;;;;;;4964177;28;20725;-64
2020/12/08 05:39:36;;;;;;;12.27;10.40;;;7.10;99.90;;;;;;4957027;28;20954;-65
2020/12/08 05:42:21;;;;;;;11.93;10.73;;;7.00;99.90;;;;;;4960383;28;21074;-65
2020/12/08 05:45:14;;;;;;;11.37;10.17;;;7.10;99.90;;;;;;4965161;28;20714;-65
2020/12/08 05:47:59;;;;;;;11.47;10.37;;;7.10;99.90;;;;;;4960317;28;20768;-64
2020/12/08 05:50:43;;;;;;;11.37;10.17;;;7.10;99.90;;;;;;4953202;28;21317;-65
2020/12/08 05:53:28;;;;;;;11.50;10.30;;;7.10;99.90;;;;;;4958197;28;20990;-65
2020/12/08 05:56:12;;;;;;;11.93;10.73;;;7.10;99.90;;;;;;4952653;28;20594;-65
2020/12/08 05:58:57;;;;;;;11.03;10.00;;;7.00;99.90;;;;;;4957736;28;20637;-65
2020/12/08 06:01:48;;;;;;;12.23;10.77;;;7.10;99.90;;;;;;4960654;28;20638;-66
2020/12/08 06:04:43;;;;;;;11.83;10.67;;;7.10;99.90;;;;;;4952908;28;20727;-65
2020/12/08 06:07:32;;;;;;;12.20;11.00;;;7.10;99.90;;;;;;4955093;28;20857;-64
2020/12/08 06:10:16;;;;;;;12.80;11.50;;;7.10;99.90;;;;;;4955911;28;20638;-64
2020/12/08 06:13:01;;;;;;;11.47;10.27;;;7.10;99.90;;;;;;4958644;28;21048;-65
2020/12/08 06:15:46;;;;;;;11.00;9.80;;;7.10;99.90;;;;;;4957114;28;20597;-65
2020/12/08 06:18:39;;;;;;;12.80;11.37;;;7.10;99.90;;;;;;4955474;28;20732;-65
2020/12/08 06:21:28;;;;;;;11.90;10.70;;;7.10;99.90;;;;;;4952609;28;20837;-65
2020/12/08 06:24:12;;;;;;;12.70;11.30;;;7.10;99.90;;;;;;4955235;28;20617;-64
2020/12/08 06:26:57;;;;;;;11.60;10.40;;;7.10;99.90;;;;;;4967617;28;20680;-64
2020/12/08 06:29:52;;;;;;;12.03;10.73;;;7.10;99.90;;;;;;4963741;28;20645;-65
2020/12/08 06:32:36;;;;;;;12.87;10.90;;;7.10;99.90;;;;;;4949094;28;20642;-65
2020/12/08 06:35:21;;;;;;;12.37;11.07;;;7.10;99.90;;;;;;4966528;28;21176;-65
2020/12/08 06:38:05;;;;;;;12.40;11.10;;;7.10;99.90;;;;;;4969083;28;20720;-65
2020/12/08 06:40:51;;;;;;;12.57;10.60;;;7.10;99.90;;;;;;4959761;28;20640;-65
2020/12/08 06:43:44;;;;;;;12.30;10.40;;;7.00;99.90;;;;;;4965994;28;21001;-65
2020/12/08 06:46:29;;;;;;;11.90;10.70;;;7.10;99.90;;;;;;4959339;28;20673;-65
2020/12/08 06:49:16;;;;;;;12.53;11.10;;;7.10;99.90;;;;;;4959458;28;20621;-65
2020/12/08 06:52:01;;;;;;;13.57;11.30;;;7.10;99.90;;;;;;4968324;28;20650;-65
2020/12/08 06:54:55;;;;;;;12.57;11.27;;;7.00;99.90;;;;;;4960403;28;21232;-65
2020/12/08 06:57:40;;;;;;;11.93;10.63;;;7.00;99.90;;;;;;4964804;28;20649;-65
2020/12/08 07:00:25;;;;;;;11.60;10.40;;;7.00;99.90;;;;;;4960634;28;21224;-65
2020/12/08 07:03:10;;;;;;;12.27;10.50;;;7.00;99.90;;;;;;4957776;28;20602;-64
2020/12/08 07:05:58;;;;;;;12.50;11.20;;;7.00;99.90;;;;;;4936095;28;20668;-64
2020/12/08 07:08:50;;;;;;;12.70;10.83;;;7.00;99.90;;;;;;4958785;28;21118;-65
2020/12/08 07:11:35;;;;;;;17.03;11.83;;;7.00;99.90;;;;;;4979615;28;20708;-65
2020/12/08 07:14:27;;;;;;;11.97;10.67;;;7.00;99.90;;;;;;4972788;28;20688;-65
2020/12/08 07:17:12;;;;;;;11.67;10.47;;;7.00;99.90;;;;;;4971194;28;21331;-65
2020/12/08 07:19:56;;;;;;;11.53;10.33;;;7.00;99.90;;;;;;4962600;28;20689;-65
2020/12/08 07:22:42;;;;;;;12.47;10.43;;;7.00;99.90;;;;;;4993160;28;20589;-65
2020/12/08 07:25:27;;;;;;;11.57;10.37;;;7.00;99.90;;;;;;4966355;28;20590;-65
2020/12/08 07:28:12;;;;;;;12.80;11.00;;;6.90;99.90;;;;;;4967986;28;20661;-65
2020/12/08 07:30:56;;;;;;;12.50;11.20;;;7.00;99.90;;;;;;4978951;28;20768;-65
2020/12/08 07:33:40;;;;;;;12.63;10.97;;;6.90;99.90;;;;;;4963973;28;20630;-65
2020/12/08 07:36:33;;;;;;;11.80;10.50;;;7.00;99.90;;;;;;4992525;28;21206;-65
2020/12/08 07:39:19;;;;;;;11.70;10.50;;;6.90;99.90;;;;;;4958244;28;20594;-66
2020/12/08 07:42:07;;;;;;;12.13;10.90;;;6.90;99.90;;;;;;4963404;28;20601;-66
2020/12/08 07:44:58;;;;;;;12.70;10.77;;;7.00;99.90;;;;;;4956176;28;20589;-65
2020/12/08 07:47:54;;;;;;;11.27;10.17;;;6.90;99.90;;;;;;4975270;28;20650;-66
2020/12/08 07:50:38;;;;;;;13.20;10.13;;;6.90;99.90;;;;;;4966929;28;20721;-66
2020/12/08 07:53:33;;;;;;;11.33;10.23;;;6.90;99.90;;;;;;4969520;28;21254;-66
2020/12/08 07:56:26;;;;;;;12.93;11.57;;;6.90;99.90;;;;;;4965994;28;20671;-66
2020/12/08 07:59:11;;;;;;;13.60;11.10;;;6.90;99.90;;;;;;4981944;28;20630;-65
2020/12/08 08:01:56;;;;;;;12.70;11.17;;;6.90;99.90;;;;;;4974271;28;20711;-66
2020/12/08 08:04:40;;;;;;;12.33;10.47;;;6.90;99.90;;;;;;4979153;28;20578;-66
2020/12/08 08:07:24;;;;;;;10.93;9.83;;;6.90;99.90;;;;;;4964766;28;21168;-64
2020/12/08 08:10:09;;;;;;;11.23;10.13;;;6.90;99.90;;;;;;4959679;28;20997;-65
2020/12/08 08:12:53;;;;;;;11.20;10.13;;;6.90;99.90;;;;;;4990685;28;21180;-66
2020/12/08 08:15:38;;;;;;;11.57;10.37;;;6.90;99.90;;;;;;4968511;28;20610;-66
2020/12/08 08:18:22;;;;;;;11.53;10.30;;;7.00;99.90;;;;;;4955841;28;20799;-65
2020/12/08 08:21:07;;;;;;;14.37;10.93;;;7.00;99.90;;;;;;4984542;28;20683;-66
2020/12/08 08:23:52;;;;;;;16.63;11.27;;;7.00;99.90;;;;;;4983908;28;20661;-65
2020/12/08 08:26:40;;;;;;;11.83;10.57;;;7.00;99.90;;;;;;5008586;22;20979;-67
2020/12/08 08:29:25;;;;;;;11.57;10.37;;;7.00;99.90;;;;;;5017308;28;20618;-66
2020/12/08 08:32:09;;;;;;;13.00;11.00;;;7.00;99.90;;;;;;5012210;28;20654;-66
2020/12/08 08:34:53;;;;;;;12.50;11.20;;;7.00;99.90;;;;;;5013114;28;20685;-66
2020/12/08 08:37:38;;;;;;;12.67;11.37;;;7.00;99.90;;;;;;5006909;28;20630;-66
2020/12/08 08:40:22;;;;;;;12.17;10.90;;;7.00;99.90;;;;;;5008600;28;20631;-66
2020/12/08 08:43:07;;;;;;;14.13;10.83;;;7.10;99.90;;;;;;4993445;28;20623;-66
2020/12/08 08:45:53;;;;;;;11.63;10.40;;;7.10;99.90;;;;;;4995529;28;20620;-66
2020/12/08 08:48:38;;;;;;;13.10;11.80;;;7.20;99.90;;;;;;4994794;28;20659;-66
2020/12/08 08:51:22;;;;;;;13.37;11.47;;;7.20;99.90;;;;;;4998986;28;20643;-66
2020/12/08 08:54:06;;;;;;;12.93;11.50;;;7.20;99.90;;;;;;4995369;28;20620;-65
2020/12/08 08:56:54;;;;;;;13.87;11.63;;;7.20;99.90;;;;;;4997779;28;20674;-65
2020/12/08 08:59:38;;;;;;;12.63;11.33;;;7.20;99.90;;;;;;4996592;28;20691;-66
2020/12/08 09:02:23;;;;;;;12.03;10.83;;;7.10;99.90;;;;;;5010472;28;20608;-66
2020/12/08 09:05:07;;;;;;;12.57;11.20;;;7.10;99.90;;;;;;4996022;28;20636;-66
2020/12/08 09:07:53;;;;;;;12.63;11.33;;;7.10;99.90;;;;;;5005444;28;20664;-66
2020/12/08 09:10:37;;;;;;;12.70;11.30;;;7.10;99.90;;;;;;4984790;28;20660;-65
2020/12/08 09:13:22;;;;;;;13.07;11.53;;;7.20;99.90;;;;;;4971160;28;20957;-65
2020/12/08 09:16:07;;;;;;;13.30;11.90;;;7.20;99.90;;;;;;4985488;28;20655;-66
2020/12/08 09:18:52;;;;;;;10.83;9.70;;;7.20;99.90;;;;;;4994829;28;20632;-65
2020/12/08 09:21:37;;;;;;;13.43;11.80;;;7.20;99.90;;;;;;4980538;28;20640;-66
2020/12/08 09:24:21;;;;;;;13.40;11.70;;;7.30;99.90;;;;;;4985512;28;20581;-66
2020/12/08 09:27:06;;;;;;;12.73;11.40;;;7.30;99.90;;;;;;4978669;28;20780;-66
2020/12/08 09:29:50;;;;;;;13.00;11.57;;;7.30;99.90;;;;;;4980153;28;20636;-66
2020/12/08 09:32:35;;;;;;;15.17;12.50;;;7.30;99.90;;;;;;4984304;28;20685;-66
2020/12/08 09:35:20;;;;;;;13.40;12.00;;;7.30;99.90;;;;;;4986494;28;20652;-66
2020/12/08 09:38:05;;;;;;;13.30;11.90;;;7.30;99.90;;;;;;4985373;28;20652;-66
2020/12/08 09:40:50;;;;;;;14.10;12.23;;;7.30;99.90;;;;;;4974416;28;20720;-66
2020/12/08 09:43:34;;;;;;;13.10;11.57;;;7.40;99.90;;;;;;4974636;28;20580;-66
2020/12/08 09:46:19;;;;;;;15.90;13.00;;;7.30;99.90;;;;;;4975871;28;20632;-66
2020/12/08 09:49:04;;;;;;;14.17;12.67;;;7.30;99.90;;;;;;4977169;28;20616;-66
2020/12/08 09:51:49;;;;;;;14.63;12.43;;;7.30;99.90;;;;;;4998456;28;20651;-66
2020/12/08 09:54:33;;;;;;;14.03;11.83;;;7.30;99.90;;;;;;4994746;28;20698;-66
2020/12/08 09:57:18;;;;;;;14.50;12.30;;;7.40;99.90;;;;;;5005969;28;20631;-66
2020/12/08 10:00:04;;;;;;;15.27;13.20;;;7.30;99.90;;;;;;5007579;28;20643;-65
2020/12/08 10:02:49;;;;;;;15.10;13.57;;;7.40;99.90;;;;;;4998181;28;20727;-66
2020/12/08 10:05:33;;;;;;;14.60;13.00;;;7.40;99.90;;;;;;5009800;28;20651;-66
2020/12/08 10:08:18;;;;;;;15.73;12.67;;;7.40;99.90;;;;;;5003618;28;20647;-65
2020/12/08 10:11:02;;;;;;;14.77;13.03;;;7.40;99.90;;;;;;4988977;28;20639;-66
2020/12/08 10:13:48;;;;;;;15.97;13.93;;;7.40;99.90;;;;;;4973159;28;20624;-65
2020/12/08 10:16:33;;;;;;;14.87;13.37;;;7.40;99.90;;;;;;4967442;28;21155;-66
2020/12/08 10:19:18;;;;;;;14.63;13.07;;;7.50;99.90;;;;;;4976174;28;20581;-65
2020/12/08 10:22:02;;;;;;;16.20;12.80;;;7.40;99.90;;;;;;4985116;28;20608;-66
2020/12/08 10:24:47;;;;;;;15.97;14.13;;;7.40;99.90;;;;;;4976538;28;20624;-65
2020/12/08 10:27:31;;;;;;;15.47;13.10;;;7.40;99.90;;;;;;4985928;28;20799;-66
2020/12/08 10:30:16;;;;;;;15.10;13.50;;;7.40;99.90;;;;;;4971011;28;20639;-65
2020/12/08 10:33:00;;;;;;;16.93;14.50;;;7.50;99.90;;;;;;4980596;28;20764;-65
2020/12/08 10:35:44;;;;;;;14.90;13.27;;;7.50;99.90;;;;;;4989979;28;20597;-66
2020/12/08 10:38:29;;;;;;;16.13;13.57;;;7.50;99.90;;;;;;4978266;28;20649;-66
2020/12/08 10:41:14;;;;;;;15.50;13.90;;;7.50;99.90;;;;;;4987400;28;21266;-65
2020/12/08 10:43:58;;;;;;;15.37;13.57;;;7.50;99.90;;;;;;4978761;28;20585;-65
2020/12/08 10:46:43;;;;;;;15.80;13.73;;;7.50;99.90;;;;;;4978900;28;20622;-66
2020/12/08 10:49:27;;;;;;;17.17;14.57;;;7.60;99.90;;;;;;4979568;28;20617;-66
2020/12/08 10:52:12;;;;;;;16.60;14.80;;;7.60;99.90;;;;;;4986048;28;20581;-68
2020/12/08 10:54:59;;;;;;;17.67;14.30;;;7.50;99.90;;;;;;4987790;28;20983;-65
2020/12/08 10:57:44;;;;;;;18.20;15.20;;;7.50;99.90;;;;;;4981327;28;20695;-66
2020/12/08 11:00:29;;;;;;;15.83;13.23;;;7.50;99.90;;;;;;4973697;28;20649;-66
2020/12/08 11:03:14;;;;;;;16.43;13.90;;;7.50;99.90;;;;;;4975799;28;20647;-65
2020/12/08 11:05:58;;;;;;;16.00;14.40;;;7.60;99.90;;;;;;4987639;28;20580;-66
2020/12/08 11:08:43;;;;;;;17.10;15.27;;;7.60;99.90;;;;;;4982121;28;20655;-66
2020/12/08 11:11:30;;;;;;;16.07;14.47;;;7.60;99.90;;;;;;4981055;28;20652;-66
2020/12/08 11:14:15;;;;;;;17.30;15.37;;;7.60;99.90;;;;;;4993540;28;20647;-65
2020/12/08 11:16:59;;;;;;;18.77;15.63;;;7.60;99.90;;;;;;4986332;28;20647;-65
2020/12/08 11:19:44;;;;;;;16.97;15.17;;;7.60;99.90;;;;;;4986272;28;20703;-66
2020/12/08 11:22:29;;;;;;;17.10;14.77;;;7.70;99.90;;;;;;4988506;28;20656;-65
2020/12/08 11:25:14;;;;;;;18.10;15.77;;;7.70;99.90;;;;;;4978625;28;20572;-66
2020/12/08 11:27:58;;;;;;;18.50;16.50;;;7.70;99.90;;;;;;4985628;28;20738;-65
2020/12/08 11:30:43;;;;;;;17.97;16.07;;;7.70;99.90;;;;;;4989977;28;20672;-65
2020/12/08 11:33:28;;;;;;;20.37;16.93;;;7.70;99.90;;;;;;4990824;28;20663;-65
2020/12/08 11:36:13;;;;;;;20.13;16.67;;;7.70;99.90;;;;;;4994112;28;20608;-66
2020/12/08 11:38:58;;;;;;;20.37;17.13;;;7.70;99.90;;;;;;4980006;28;20627;-65
2020/12/08 11:41:42;;;;;;;20.03;17.70;;;7.80;99.90;;;;;;4978392;28;20625;-66
2020/12/08 11:44:27;;;;;;;19.27;16.93;;;7.80;99.90;;;;;;4979051;28;20616;-65
2020/12/08 11:47:11;;;;;;;19.33;17.30;;;7.80;99.90;;;;;;4971978;28;21028;-66
2020/12/08 11:49:55;;;;;;;20.37;17.57;;;7.80;99.90;;;;;;4977663;28;21250;-66
2020/12/08 11:52:40;;;;;;;21.10;18.80;;;7.80;99.90;;;;;;4989676;28;20596;-66
2020/12/08 11:55:24;;;;;;;18.23;16.33;;;7.80;99.90;;;;;;4979436;28;20608;-66
2020/12/08 11:58:09;;;;;;;19.30;17.30;;;7.80;99.90;;;;;;4973867;28;20628;-66
2020/12/08 12:00:53;;;;;;;18.50;16.37;;;7.90;99.90;;;;;;4973423;28;20664;-65
2020/12/08 12:03:38;;;;;;;17.90;16.07;;;8.00;99.90;;;;;;4982715;28;20635;-66
2020/12/08 12:06:23;;;;;;;18.73;16.60;;;8.00;99.90;;;;;;4966618;28;20753;-66
2020/12/08 12:09:08;;;;;;;19.93;17.50;;;8.00;99.90;;;;;;4990438;28;20735;-65
2020/12/08 12:11:52;;;;;;;19.80;17.33;;;8.10;99.90;;;;;;4981695;28;20669;-66
2020/12/08 12:14:37;;;;;;;19.00;16.70;;;8.10;99.90;;;;;;4986129;28;20647;-66
2020/12/08 12:17:21;;;;;;;18.67;16.77;;;8.10;99.90;;;;;;4990469;28;20648;-65
2020/12/08 12:20:07;;;;;;;18.87;16.20;;;8.10;99.90;;;;;;4987140;28;20756;-65
2020/12/08 12:22:51;;;;;;;19.97;16.73;;;8.00;99.90;;;;;;4990445;28;20640;-65
2020/12/08 12:25:36;;;;;;;20.00;17.40;;;8.10;99.90;;;;;;4991198;28;21167;-66
2020/12/08 12:28:21;;;;;;;19.80;17.70;;;8.10;99.90;;;;;;4991597;28;20651;-66
2020/12/08 12:31:07;;;;;;;21.10;17.57;;;8.10;99.90;;;;;;4989265;28;21234;-65
2020/12/08 12:33:52;;;;;;;18.67;15.90;;;8.10;99.90;;;;;;4988623;28;20793;-66
2020/12/08 12:36:36;;;;;;;18.83;16.70;;;8.10;99.90;;;;;;4990809;28;20649;-65
2020/12/08 12:39:21;;;;;;;18.60;16.70;;;8.10;99.90;;;;;;4988917;28;20604;-66
2020/12/08 12:42:06;;;;;;;17.60;15.53;;;8.10;99.90;;;;;;4989154;28;21613;-65
2020/12/08 12:44:52;;;;;;;19.83;17.73;;;8.10;99.90;;;;;;5003114;28;20612;-66
2020/12/08 12:47:37;;;;;;;18.10;16.30;;;8.10;99.90;;;;;;4992833;28;20659;-66
2020/12/08 12:50:21;;;;;;;18.83;16.87;;;8.20;99.90;;;;;;4991174;28;20728;-66
2020/12/08 12:53:06;;;;;;;19.43;16.60;;;8.20;99.90;;;;;;4984342;28;20719;-66
2020/12/08 12:55:50;;;;;;;20.33;17.97;;;8.20;99.90;;;;;;5003250;28;20596;-65
2020/12/08 12:58:34;;;;;;;21.70;18.07;;;8.30;99.90;;;;;;4986247;28;20647;-66
2020/12/08 13:01:20;;;;;;;21.53;17.37;;;8.40;99.90;;;;;;4985426;28;20673;-65
2020/12/08 13:04:04;;;;;;;20.13;17.43;;;8.50;99.90;;;;;;4987896;28;20616;-65
2020/12/08 13:06:49;;;;;;;22.33;18.67;;;8.50;99.90;;;;;;4988434;28;20736;-66
2020/12/08 13:09:33;;;;;;;22.97;18.60;;;8.60;99.90;;;;;;4998662;28;21203;-66
2020/12/08 13:12:18;;;;;;;19.90;17.10;;;8.60;99.90;;;;;;4989402;28;20602;-66
2020/12/08 13:15:03;;;;;;;20.53;17.80;;;8.50;99.90;;;;;;4993498;28;20648;-66
2020/12/08 13:17:47;;;;;;;21.40;18.30;;;8.50;99.90;;;;;;4997298;28;20648;-66
2020/12/08 13:20:31;;;;;;;20.23;17.07;;;8.50;99.90;;;;;;4988055;28;20664;-66
2020/12/08 13:23:16;;;;;;;21.60;18.80;;;8.50;99.90;;;;;;4989437;28;20612;-65
2020/12/08 13:26:05;;;;;;;22.67;19.13;;;8.50;99.90;;;;;;5004167;28;20922;-66
2020/12/08 13:28:50;;;;;;;26.47;20.17;;;8.50;99.90;;;;;;4992347;28;20668;-65
2020/12/08 13:31:34;;;;;;;25.93;21.37;;;8.50;99.90;;;;;;4993332;28;20695;-65
2020/12/08 13:34:19;;;;;;;28.13;22.10;;;8.50;99.90;;;;;;4990297;28;20811;-66
2020/12/08 13:37:03;;;;;;;27.80;21.80;;;8.40;99.90;;;;;;4987975;28;20628;-66
2020/12/08 13:39:47;;;;;;;29.90;22.20;;;8.40;99.90;;;;;;4990234;28;20656;-65
2020/12/08 13:42:32;;;;;;;32.40;24.30;;;8.30;99.90;;;;;;4989114;28;21195;-65
2020/12/08 13:45:17;;;;;;;31.80;23.63;;;8.30;99.90;;;;;;4983613;28;20636;-65
2020/12/08 13:48:03;;;;;;;31.80;23.00;;;8.30;99.90;;;;;;4987418;28;21012;-65
2020/12/08 13:50:48;;;;;;;32.50;23.90;;;8.20;99.90;;;;;;4984467;28;20636;-65
2020/12/08 13:53:33;;;;;;;34.07;24.57;;;8.20;99.90;;;;;;4983102;28;20623;-65
2020/12/08 13:56:21;;;;;;;36.63;26.00;;;8.10;99.90;;;;;;4990157;28;20585;-65
2020/12/08 13:59:06;;;;;;;33.80;24.40;;;8.10;99.90;;;;;;5004962;28;21151;-65
2020/12/08 14:01:50;;;;;;;35.40;25.90;;;8.10;99.90;;;;;;4996528;28;21030;-65
2020/12/08 14:04:35;;;;;;;36.30;25.60;;;8.10;99.90;;;;;;4986244;28;20584;-65
2020/12/08 14:07:20;;;;;;;34.30;25.23;;;8.10;99.90;;;;;;4990235;28;20664;-65
2020/12/08 14:10:06;;;;;;;38.70;27.67;;;8.10;99.90;;;;;;5003103;28;20731;-66
2020/12/08 14:12:50;;;;;;;35.00;26.40;;;8.10;99.90;;;;;;4986903;28;20640;-66
2020/12/08 14:15:35;;;;;;;37.43;26.03;;;8.10;99.90;;;;;;4990765;28;20668;-66
2020/12/08 14:18:19;;;;;;;39.20;27.93;;;8.00;99.90;;;;;;4989441;28;20655;-65